Time;durP1;ratioP1;P1;durP2;ratioP2;P2;SDS_P1;SDS_P2;PMS_P1;PMS_P2;Temp;Humidity;BMP_temperature;BMP_pressure;BME280_temperature;BME280_humidity;BME280_pressure;Samples;Min_cycle;Max_cycle;Signal;HPM_P1;HPM_P2
2021/01/26 00:00:59;;;;;;;0.23;0.23;;;0.70;99.90;;;;;;5071632;28;20035;-86
2021/01/26 00:03:25;;;;;;;0.25;0.25;;;0.60;99.90;;;;;;5071818;28;20478;-85
2021/01/26 00:05:51;;;;;;;0.20;0.20;;;0.50;99.90;;;;;;5071480;28;20393;-85
2021/01/26 00:08:19;;;;;;;0.93;0.93;;;0.60;99.90;;;;;;5052858;28;20020;-85
2021/01/26 00:10:45;;;;;;;0.10;0.10;;;0.50;99.90;;;;;;5071646;28;20051;-85
2021/01/26 00:13:12;;;;;;;0.43;0.43;;;0.60;99.90;;;;;;5053326;28;20807;-85
2021/01/26 00:15:37;;;;;;;0.10;0.10;;;0.40;99.90;;;;;;5071304;28;20025;-85
2021/01/26 00:18:04;;;;;;;0.10;0.10;;;0.30;99.90;;;;;;5072020;28;20035;-85
2021/01/26 00:20:32;;;;;;;0.10;0.10;;;0.30;99.90;;;;;;5071301;28;20502;-85
2021/01/26 00:22:58;;;;;;;0.40;0.40;;;0.20;99.90;;;;;;5053026;28;20036;-86
2021/01/26 00:25:35;;;;;;;0.52;0.52;;;0.40;99.90;;;;;;5071609;28;20119;-85
2021/01/26 00:28:03;;;;;;;0.10;0.10;;;0.20;99.90;;;;;;5071779;28;20032;-84
2021/01/26 00:30:32;;;;;;;0.10;0.10;;;0.10;99.90;;;;;;5071246;28;20476;-85
2021/01/26 00:33:00;;;;;;;0.10;0.10;;;0.20;99.90;;;;;;5071000;28;20024;-85
2021/01/26 00:35:30;;;;;;;0.20;0.20;;;0.20;99.90;;;;;;5053392;28;20021;-85
2021/01/26 00:37:57;;;;;;;0.10;0.10;;;0.00;99.90;;;;;;5053464;28;20040;-85
2021/01/26 00:40:23;;;;;;;;;;;-0.10;99.90;;;;;;5072041;28;20021;-85
2021/01/26 00:42:49;;;;;;;0.10;0.10;;;-0.20;99.90;;;;;;5053226;28;20392;-85
2021/01/26 00:45:16;;;;;;;0.10;0.10;;;-0.10;99.90;;;;;;5071465;28;20033;-85
2021/01/26 00:47:42;;;;;;;;;;;-0.20;99.90;;;;;;5053091;28;20124;-85
2021/01/26 00:50:09;;;;;;;0.10;0.10;;;-0.10;99.90;;;;;;5053370;28;19995;-85
2021/01/26 00:52:36;;;;;;;0.10;0.10;;;-0.20;99.90;;;;;;5071174;28;20036;-85
2021/01/26 00:55:04;;;;;;;1.50;1.33;;;-0.10;99.90;;;;;;5071288;28;20067;-85
2021/01/26 00:57:30;;;;;;;0.20;0.20;;;-0.20;99.90;;;;;;5079778;28;20024;-85
2021/01/26 00:59:55;;;;;;;0.10;0.10;;;-0.40;99.90;;;;;;5074825;28;20024;-85
2021/01/26 01:02:21;;;;;;;0.20;0.20;;;-0.30;99.90;;;;;;5053019;28;20037;-85
2021/01/26 01:04:47;;;;;;;0.10;0.10;;;-0.40;99.90;;;;;;5071110;28;20051;-85
2021/01/26 01:07:18;;;;;;;0.20;0.20;;;-0.50;99.90;;;;;;5073663;28;20132;-85
2021/01/26 01:09:45;;;;;;;0.40;0.40;;;-0.70;99.90;;;;;;5077970;28;20039;-85
2021/01/26 01:12:11;;;;;;;0.10;0.10;;;-0.80;99.90;;;;;;5070699;28;20029;-86
2021/01/26 01:14:40;;;;;;;0.15;0.15;;;-0.70;99.90;;;;;;5071010;28;20031;-85
2021/01/26 01:17:06;;;;;;;2.10;1.55;;;-0.60;99.90;;;;;;5056893;28;20017;-85
2021/01/26 01:19:32;;;;;;;0.10;0.10;;;-0.80;99.90;;;;;;5069952;28;20094;-85
2021/01/26 01:21:58;;;;;;;0.10;0.10;;;-0.60;99.90;;;;;;5038710;28;20112;-86
2021/01/26 01:24:23;;;;;;;0.10;0.10;;;-0.60;99.90;;;;;;5053004;28;20032;-86
2021/01/26 01:26:49;;;;;;;0.10;0.10;;;-0.60;99.90;;;;;;5066316;28;20021;-86
2021/01/26 01:29:15;;;;;;;0.10;0.10;;;-0.40;99.90;;;;;;5056160;28;20500;-86
2021/01/26 01:31:41;;;;;;;0.10;0.10;;;-0.50;99.90;;;;;;5070021;28;20378;-86
2021/01/26 01:34:07;;;;;;;0.10;0.10;;;-0.70;99.90;;;;;;5066853;28;20043;-85
2021/01/26 01:36:36;;;;;;;0.20;0.20;;;-0.70;99.90;;;;;;5060535;28;20627;-85
2021/01/26 01:39:05;;;;;;;0.20;0.20;;;-0.90;99.90;;;;;;5069495;28;20178;-84
2021/01/26 01:41:32;;;;;;;0.10;0.10;;;-1.00;99.90;;;;;;5059055;28;20032;-85
2021/01/26 01:43:58;;;;;;;;;;;-1.00;99.90;;;;;;5053018;28;20032;-85
2021/01/26 01:46:24;;;;;;;0.10;0.10;;;-0.80;99.90;;;;;;5052223;28;19919;-85
2021/01/26 01:48:52;;;;;;;0.10;0.10;;;-0.80;99.90;;;;;;5069727;28;20068;-85
2021/01/26 01:51:22;;;;;;;0.30;0.30;;;-0.80;99.90;;;;;;5070291;28;20020;-85
2021/01/26 01:53:57;;;;;;;0.28;0.28;;;-0.80;99.90;;;;;;5069721;28;20386;-85
2021/01/26 01:56:30;;;;;;;0.30;0.30;;;-1.00;99.90;;;;;;5069774;28;20028;-85
2021/01/26 01:59:00;;;;;;;0.20;0.20;;;-0.90;99.90;;;;;;5069939;28;20028;-85
2021/01/26 02:01:29;;;;;;;0.10;0.10;;;-1.00;99.90;;;;;;5069816;28;20028;-85
2021/01/26 02:04:01;;;;;;;0.10;0.10;;;-1.10;99.90;;;;;;5051834;28;20063;-86
2021/01/26 02:06:33;;;;;;;0.10;0.10;;;-1.00;99.90;;;;;;5069839;28;20032;-86
2021/01/26 02:09:24;;;;;;;0.20;0.20;;;-1.10;99.90;;;;;;5065105;28;20032;-86
2021/01/26 02:11:50;;;;;;;0.10;0.10;;;-0.80;99.90;;;;;;5069096;28;20030;-86
2021/01/26 02:14:16;;;;;;;0.10;0.10;;;-0.90;99.90;;;;;;5068323;28;20029;-85
2021/01/26 02:16:54;;;;;;;0.10;0.10;;;-1.00;99.90;;;;;;5069019;28;20071;-85
2021/01/26 02:19:57;;;;;;;0.10;0.10;;;-1.00;99.90;;;;;;5068449;28;20310;-86
2021/01/26 02:22:32;;;;;;;0.10;0.10;;;-1.10;99.90;;;;;;5051064;28;20024;-86
2021/01/26 02:25:34;;;;;;;0.57;0.40;;;-1.10;99.90;;;;;;5069072;28;20017;-85
2021/01/26 02:28:38;;;;;;;0.10;0.10;;;-1.20;99.90;;;;;;5057560;28;20406;-85
2021/01/26 02:31:24;;;;;;;0.35;0.35;;;-0.80;99.90;;;;;;5065533;28;20024;-85
2021/01/26 02:34:23;;;;;;;0.10;0.10;;;-0.80;99.90;;;;;;5068334;28;20025;-85
2021/01/26 02:36:58;;;;;;;0.10;0.10;;;-1.30;99.90;;;;;;5069049;28;20052;-85
2021/01/26 02:39:32;;;;;;;0.20;0.20;;;-1.30;99.90;;;;;;5068742;28;20025;-85
2021/01/26 02:42:12;;;;;;;5.35;0.70;;;-1.30;99.90;;;;;;5068666;28;20028;-85
2021/01/26 02:45:10;;;;;;;0.30;0.30;;;-1.10;99.90;;;;;;5060370;28;20064;-85
2021/01/26 02:47:57;;;;;;;0.40;0.28;;;-1.10;99.90;;;;;;5039670;28;20040;-86
2021/01/26 02:50:34;;;;;;;0.20;0.20;;;-1.30;99.90;;;;;;5048049;28;20108;-85
2021/01/26 02:53:09;;;;;;;0.10;0.10;;;-1.20;99.90;;;;;;5068513;28;20440;-85
2021/01/26 02:55:57;;;;;;;0.15;0.15;;;-1.20;99.90;;;;;;5068791;28;20023;-85
2021/01/26 02:58:40;;;;;;;0.13;0.13;;;-1.20;99.90;;;;;;5050863;28;20447;-85
2021/01/26 03:01:07;;;;;;;0.43;0.43;;;-1.10;99.90;;;;;;5050938;28;20020;-85
2021/01/26 03:03:43;;;;;;;0.10;0.10;;;-1.40;99.90;;;;;;5068891;28;20536;-85
2021/01/26 03:06:22;;;;;;;0.10;0.10;;;-1.60;99.90;;;;;;5069199;28;20021;-86
2021/01/26 03:08:59;;;;;;;0.28;0.28;;;-1.50;99.90;;;;;;5068035;28;20032;-85
2021/01/26 03:11:41;;;;;;;0.20;0.20;;;-1.20;99.90;;;;;;5068633;28;20027;-85
2021/01/26 03:14:25;;;;;;;0.20;0.20;;;-1.20;99.90;;;;;;5068240;28;20083;-86
2021/01/26 03:16:59;;;;;;;0.10;0.10;;;-1.30;99.90;;;;;;5068911;28;20016;-85
2021/01/26 03:19:28;;;;;;;0.10;0.10;;;-1.40;99.90;;;;;;5067670;28;20036;-85
2021/01/26 03:21:58;;;;;;;1.00;1.00;;;-1.40;99.90;;;;;;5069206;28;20024;-86
2021/01/26 03:24:28;;;;;;;0.10;0.10;;;-1.30;99.90;;;;;;5067859;28;20115;-85
2021/01/26 03:26:54;;;;;;;0.13;0.13;;;-1.20;99.90;;;;;;5049767;28;20024;-85
2021/01/26 03:29:30;;;;;;;0.20;0.20;;;-1.20;99.90;;;;;;5068143;28;20028;-85
2021/01/26 03:32:00;;;;;;;0.10;0.10;;;-1.10;99.90;;;;;;5050809;28;20455;-85
2021/01/26 03:34:26;;;;;;;0.10;0.10;;;-1.10;99.90;;;;;;5069068;28;20036;-85
2021/01/26 03:36:52;;;;;;;0.20;0.20;;;-1.20;99.90;;;;;;5048733;28;20099;-85
2021/01/26 03:39:18;;;;;;;0.40;0.40;;;-1.10;99.90;;;;;;5061064;28;20477;-85
2021/01/26 03:41:45;;;;;;;0.20;0.20;;;-1.20;99.90;;;;;;5050073;28;20028;-85
2021/01/26 03:44:12;;;;;;;0.10;0.10;;;-1.00;99.90;;;;;;5066876;28;20324;-85
2021/01/26 03:46:46;;;;;;;0.20;0.20;;;-0.90;99.90;;;;;;5049168;28;20033;-85
2021/01/26 03:49:39;;;;;;;0.10;0.10;;;-1.30;99.90;;;;;;5067896;28;20029;-84
2021/01/26 03:52:36;;;;;;;0.20;0.20;;;-1.30;99.90;;;;;;5067876;28;20074;-84
2021/01/26 03:55:19;;;;;;;0.52;0.52;;;-1.50;99.90;;;;;;5045707;28;20148;-85
2021/01/26 03:57:51;;;;;;;2.17;1.10;;;-1.40;99.90;;;;;;5049837;28;20036;-86
2021/01/26 04:00:35;;;;;;;0.15;0.15;;;-1.50;99.90;;;;;;5049229;28;20261;-85
2021/01/26 04:03:26;;;;;;;0.20;0.20;;;-1.60;99.90;;;;;;5068025;28;20025;-85
2021/01/26 04:06:02;;;;;;;0.13;0.13;;;-1.70;99.90;;;;;;5067782;28;20024;-85
2021/01/26 04:08:39;;;;;;;;;;;-1.80;99.90;;;;;;5067879;28;20028;-86
2021/01/26 04:11:18;;;;;;;0.10;0.10;;;-1.90;99.90;;;;;;5067582;28;19915;-85
2021/01/26 04:14:08;;;;;;;0.38;0.38;;;-1.90;99.90;;;;;;5067069;28;20028;-85
2021/01/26 04:16:41;;;;;;;0.85;0.85;;;-1.80;99.90;;;;;;5068019;28;20031;-85
2021/01/26 04:19:10;;;;;;;0.20;0.20;;;-2.00;99.90;;;;;;5049458;28;20040;-85
2021/01/26 04:21:38;;;;;;;0.10;0.10;;;-1.80;99.90;;;;;;5067017;28;20024;-86
2021/01/26 04:24:05;;;;;;;0.20;0.20;;;-1.80;99.90;;;;;;5064917;28;20025;-85
2021/01/26 04:26:34;;;;;;;0.10;0.10;;;-1.70;99.90;;;;;;5049200;28;20511;-85
2021/01/26 04:29:00;;;;;;;0.10;0.10;;;-1.70;99.90;;;;;;5067487;28;20064;-84
2021/01/26 04:31:26;;;;;;;0.15;0.15;;;-1.70;99.90;;;;;;5050011;28;21065;-85
2021/01/26 04:33:52;;;;;;;0.15;0.15;;;-1.70;99.90;;;;;;5068466;28;20020;-85
2021/01/26 04:36:21;;;;;;;0.20;0.20;;;-1.80;99.90;;;;;;5047625;28;20032;-85
2021/01/26 04:38:48;;;;;;;0.10;0.10;;;-1.90;99.90;;;;;;5060341;28;20040;-85
2021/01/26 04:41:35;;;;;;;0.10;0.10;;;-1.90;99.90;;;;;;5071304;28;20104;-85
2021/01/26 04:44:11;;;;;;;0.17;0.17;;;-1.90;99.90;;;;;;5070227;28;20067;-85
2021/01/26 04:46:56;;;;;;;0.15;0.15;;;-2.00;99.90;;;;;;5068709;28;20024;-85
2021/01/26 04:49:51;;;;;;;0.10;0.10;;;-1.90;99.90;;;;;;5062507;28;20104;-84
2021/01/26 04:52:24;;;;;;;0.10;0.10;;;-1.90;99.90;;;;;;5052348;28;20186;-84
2021/01/26 04:55:14;;;;;;;0.10;0.10;;;-1.90;99.90;;;;;;5053053;28;20026;-85
2021/01/26 04:58:16;;;;;;;0.10;0.10;;;-2.00;99.90;;;;;;5070756;28;20025;-85
2021/01/26 05:00:54;;;;;;;0.20;0.20;;;-2.10;99.90;;;;;;5064886;28;20032;-86
2021/01/26 05:03:41;;;;;;;8.25;1.42;;;-2.20;99.90;;;;;;5076709;28;20017;-86
2021/01/26 05:06:12;;;;;;;0.20;0.20;;;-2.30;99.90;;;;;;5052899;28;21030;-86
2021/01/26 05:08:42;;;;;;;0.28;0.28;;;-2.40;99.90;;;;;;5070690;28;20516;-85
2021/01/26 05:11:21;;;;;;;1.23;0.73;;;-2.40;99.90;;;;;;5069910;28;20512;-85
2021/01/26 05:13:56;;;;;;;0.20;0.20;;;-2.40;99.90;;;;;;5066475;28;20486;-85
2021/01/26 05:16:24;;;;;;;0.20;0.20;;;-2.60;1.00;;;;;;5070476;28;20085;-85
2021/01/26 05:18:56;;;;;;;4.68;1.98;;;-2.60;1.00;;;;;;5069638;28;20047;-85
2021/01/26 05:21:40;;;;;;;2.17;1.75;;;-2.70;1.00;;;;;;5070700;28;20091;-84
2021/01/26 05:24:23;;;;;;;1.30;1.25;;;-2.60;1.00;;;;;;5070278;28;20111;-85
2021/01/26 05:26:49;;;;;;;0.20;0.20;;;-2.70;24.70;;;;;;5070386;28;20024;-85
2021/01/26 05:29:16;;;;;;;0.30;0.30;;;-2.70;62.80;;;;;;5052416;28;20393;-86
2021/01/26 05:31:45;;;;;;;;;;;-2.80;99.90;;;;;;5072390;28;20076;-85
2021/01/26 05:34:14;;;;;;;0.10;0.10;;;-2.80;99.90;;;;;;5070219;28;19918;-85
2021/01/26 05:36:47;;;;;;;0.10;0.10;;;-2.80;99.90;;;;;;5069933;28;20090;-85
2021/01/26 05:39:48;;;;;;;0.10;0.10;;;-2.80;99.90;;;;;;5064821;28;20027;-84
2021/01/26 05:42:18;;;;;;;0.20;0.20;;;-2.80;99.90;;;;;;5060740;28;20072;-84
2021/01/26 05:44:53;;;;;;;0.17;0.17;;;-2.70;99.90;;;;;;5051177;28;20040;-85
2021/01/26 05:47:25;;;;;;;3.95;1.45;;;-2.70;99.90;;;;;;5069608;28;20519;-85
2021/01/26 05:49:52;;;;;;;0.20;0.20;;;-2.60;99.90;;;;;;5069001;28;20787;-85
2021/01/26 05:52:20;;;;;;;2.38;0.52;;;-2.70;99.90;;;;;;5068959;28;20205;-84
2021/01/26 05:54:52;;;;;;;0.10;0.10;;;-2.60;99.90;;;;;;5069837;28;20017;-85
2021/01/26 05:57:28;;;;;;;0.55;0.40;;;-2.70;99.90;;;;;;5064312;28;20528;-83
2021/01/26 06:00:31;;;;;;;0.20;0.20;;;-2.70;99.90;;;;;;5069645;28;20025;-85
2021/01/26 06:03:18;;;;;;;1.38;1.27;;;-2.60;99.90;;;;;;5063097;28;20037;-85
2021/01/26 06:06:02;;;;;;;0.40;0.40;;;-2.60;99.90;;;;;;5065324;28;20024;-86
2021/01/26 06:08:33;;;;;;;0.10;0.10;;;-2.50;63.50;;;;;;5068851;28;20047;-85
2021/01/26 06:11:14;;;;;;;0.10;0.10;;;-2.50;43.50;;;;;;5069155;28;20024;-86
2021/01/26 06:13:41;;;;;;;0.20;0.20;;;-2.60;28.60;;;;;;5067768;28;20497;-88
2021/01/26 06:16:08;;;;;;;0.10;0.10;;;-2.50;18.40;;;;;;5063688;28;20031;-87
2021/01/26 06:18:34;;;;;;;;;;;-2.50;1.30;;;;;;5068998;28;20028;-86
2021/01/26 06:21:11;;;;;;;0.10;0.10;;;-2.30;1.00;;;;;;5068556;28;19911;-85
2021/01/26 06:23:37;;;;;;;;;;;-2.50;1.00;;;;;;5072178;28;20028;-87
2021/01/26 06:26:09;;;;;;;0.30;0.30;;;-2.30;1.00;;;;;;5073504;28;19919;-86
2021/01/26 06:28:38;;;;;;;0.10;0.10;;;-2.30;1.00;;;;;;5059276;28;20021;-86
2021/01/26 06:31:37;;;;;;;0.10;0.10;;;-2.30;1.00;;;;;;5069035;28;20035;-86
2021/01/26 06:34:36;;;;;;;0.10;0.10;;;-2.30;1.00;;;;;;5055935;28;20032;-87
2021/01/26 06:37:16;;;;;;;0.38;0.38;;;-2.50;1.00;;;;;;5069144;28;20025;-87
2021/01/26 06:40:21;;;;;;;1.60;0.65;;;-2.50;1.00;;;;;;5049801;28;20024;-88
2021/01/26 06:42:52;;;;;;;0.20;0.20;;;-2.40;1.00;;;;;;5064924;28;20036;-88
2021/01/26 06:45:25;;;;;;;0.10;0.10;;;-2.50;1.00;;;;;;5054687;28;20046;-87
2021/01/26 06:48:05;;;;;;;0.40;0.40;;;-2.60;1.00;;;;;;5056229;28;20155;-87
2021/01/26 06:51:13;;;;;;;0.10;0.10;;;-2.70;1.00;;;;;;5068767;28;20028;-86
2021/01/26 06:53:52;;;;;;;0.10;0.10;;;-2.40;1.00;;;;;;5050165;28;20059;-86
2021/01/26 06:56:55;;;;;;;0.20;0.20;;;-2.40;1.00;;;;;;5055135;28;20100;-87
2021/01/26 06:59:52;;;;;;;0.10;0.10;;;-2.60;1.00;;;;;;5050227;28;20020;-85
2021/01/26 07:02:36;;;;;;;0.20;0.20;;;-2.50;1.00;;;;;;5044671;28;20036;-85
2021/01/26 07:05:32;;;;;;;0.20;0.20;;;-2.50;1.00;;;;;;5056796;28;20108;-86
2021/01/26 07:08:35;;;;;;;0.30;0.30;;;-2.50;1.00;;;;;;5068462;28;20050;-85
2021/01/26 07:11:27;;;;;;;0.10;0.10;;;-2.40;1.00;;;;;;5040120;28;20923;-85
2021/01/26 07:14:09;;;;;;;1.08;0.93;;;-2.50;1.00;;;;;;5068379;28;20032;-85
2021/01/26 07:16:47;;;;;;;0.47;0.47;;;-2.60;1.00;;;;;;5068412;28;20016;-85
2021/01/26 07:19:23;;;;;;;0.20;0.20;;;-2.70;1.00;;;;;;5050458;28;20036;-86
2021/01/26 07:22:20;;;;;;;1.70;1.02;;;-2.70;1.00;;;;;;5054370;28;20028;-86
2021/01/26 07:25:07;;;;;;;0.20;0.20;;;-2.70;1.00;;;;;;5054431;28;20027;-86
2021/01/26 07:28:04;;;;;;;0.38;0.38;;;-2.70;1.00;;;;;;5068799;28;20025;-86
2021/01/26 07:30:53;;;;;;;0.10;0.10;;;-2.70;1.00;;;;;;5056609;28;20516;-85
2021/01/26 07:33:35;;;;;;;0.35;0.35;;;-2.70;1.00;;;;;;5068391;28;20049;-86
2021/01/26 07:36:26;;;;;;;0.40;0.40;;;-2.60;1.00;;;;;;5049709;28;20032;-85
2021/01/26 07:39:01;;;;;;;0.65;0.60;;;-2.60;1.00;;;;;;5066496;28;20025;-86
2021/01/26 07:41:54;;;;;;;0.13;0.13;;;-2.40;1.00;;;;;;5050380;28;20028;-86
2021/01/26 07:44:32;;;;;;;0.17;0.17;;;-2.20;1.00;;;;;;5072663;28;20020;-85
2021/01/26 07:47:11;;;;;;;0.73;0.73;;;-2.00;99.90;;;;;;5068755;28;20016;-86
2021/01/26 07:49:51;;;;;;;0.10;0.10;;;-2.00;99.90;;;;;;5068445;28;20039;-86
2021/01/26 07:52:18;;;;;;;0.20;0.20;;;-2.00;99.90;;;;;;5067752;28;20121;-86
2021/01/26 07:55:21;;;;;;;0.10;0.10;;;-2.00;99.90;;;;;;5049953;28;20028;-87
2021/01/26 07:57:57;;;;;;;0.20;0.20;;;-1.80;99.90;;;;;;5039054;28;20029;-86
2021/01/26 08:00:27;;;;;;;0.10;0.10;;;-1.60;99.90;;;;;;5049002;28;20029;-86
2021/01/26 08:02:56;;;;;;;0.80;0.80;;;-1.60;99.90;;;;;;5068404;28;20044;-87
2021/01/26 08:05:40;;;;;;;0.10;0.10;;;-1.60;99.90;;;;;;5067770;28;20032;-86
2021/01/26 08:08:08;;;;;;;0.10;0.10;;;-1.60;99.90;;;;;;5068073;28;20043;-86
2021/01/26 08:10:34;;;;;;;0.10;0.10;;;-1.60;99.90;;;;;;5067914;28;20016;-86
2021/01/26 08:13:02;;;;;;;0.10;0.10;;;-1.60;99.90;;;;;;5070653;28;20032;-86
2021/01/26 08:15:34;;;;;;;0.10;0.10;;;-1.70;99.90;;;;;;5053540;28;20056;-86
2021/01/26 08:18:31;;;;;;;0.10;0.10;;;-1.70;99.90;;;;;;5072296;28;20025;-85
2021/01/26 08:20:57;;;;;;;6.25;2.92;;;-1.70;99.90;;;;;;5031915;28;20045;-86
2021/01/26 08:23:33;;;;;;;0.20;0.20;;;-1.70;99.90;;;;;;5031901;28;20822;-85
2021/01/26 08:26:15;;;;;;;0.30;0.30;;;-1.40;99.90;;;;;;5031660;28;20034;-85
2021/01/26 08:28:44;;;;;;;0.50;0.50;;;-1.20;99.90;;;;;;5027175;28;20030;-85
2021/01/26 08:31:30;;;;;;;0.20;0.20;;;-0.90;99.90;;;;;;5017403;28;20101;-85
2021/01/26 08:34:22;;;;;;;0.20;0.20;;;-0.10;99.90;;;;;;5031957;28;20049;-86
2021/01/26 08:37:08;;;;;;;0.17;0.17;;;2.40;99.90;;;;;;5031735;28;20109;-85
2021/01/26 08:39:45;;;;;;;0.50;0.50;;;4.30;99.90;;;;;;5018805;28;20117;-86
2021/01/26 08:42:43;;;;;;;0.10;0.10;;;3.10;99.90;;;;;;5031878;28;20017;-86
2021/01/26 08:45:26;;;;;;;0.20;0.20;;;1.20;99.90;;;;;;5029819;28;20032;-86
2021/01/26 08:48:19;;;;;;;0.30;0.30;;;0.30;99.90;;;;;;5031638;28;20112;-85
2021/01/26 08:50:51;;;;;;;0.10;0.10;;;-0.20;99.90;;;;;;5031187;28;20049;-86
2021/01/26 08:53:29;;;;;;;0.20;0.20;;;-0.40;99.90;;;;;;5029765;28;20040;-86
2021/01/26 08:56:01;;;;;;;3.00;0.63;;;-0.30;99.90;;;;;;5031267;28;20037;-86
2021/01/26 08:58:48;;;;;;;0.10;0.10;;;-0.30;99.90;;;;;;5029774;28;20039;-86
2021/01/26 09:01:22;;;;;;;0.22;0.22;;;-0.20;99.90;;;;;;5031125;28;20031;-86
2021/01/26 09:03:52;;;;;;;0.22;0.22;;;-0.20;99.90;;;;;;5030785;28;20749;-86
2021/01/26 09:06:39;;;;;;;0.32;0.32;;;-0.20;99.90;;;;;;5029512;28;20026;-87
2021/01/26 09:09:06;;;;;;;0.38;0.38;;;0.10;99.90;;;;;;5030798;28;20061;-87
2021/01/26 09:11:41;;;;;;;0.20;0.20;;;0.60;99.90;;;;;;5045703;28;20106;-87
2021/01/26 09:14:46;;;;;;;0.10;0.10;;;0.90;99.90;;;;;;5046516;28;20030;-87
2021/01/26 09:17:17;;;;;;;0.30;0.30;;;1.10;99.90;;;;;;5019683;28;20033;-87
2021/01/26 09:19:55;;;;;;;0.75;0.52;;;0.50;99.90;;;;;;5041840;28;20175;-87
2021/01/26 09:22:29;;;;;;;0.25;0.25;;;0.10;99.90;;;;;;5070921;28;20024;-87
2021/01/26 09:25:20;;;;;;;0.30;0.30;;;0.10;99.90;;;;;;5051312;28;20509;-87
2021/01/26 09:28:07;;;;;;;0.10;0.10;;;0.20;99.90;;;;;;4988935;28;20080;-87
2021/01/26 09:30:33;;;;;;;0.10;0.10;;;0.20;99.90;;;;;;5008856;28;20052;-87
2021/01/26 09:33:04;;;;;;;0.15;0.15;;;0.20;99.90;;;;;;4999378;28;20466;-87
2021/01/26 09:35:48;;;;;;;0.17;0.17;;;0.20;99.90;;;;;;4992095;28;20555;-87
2021/01/26 09:38:26;;;;;;;0.32;0.32;;;0.30;99.90;;;;;;5008864;28;20114;-87
2021/01/26 09:40:57;;;;;;;0.20;0.20;;;0.30;99.90;;;;;;5008329;28;20067;-87
2021/01/26 09:43:28;;;;;;;0.28;0.28;;;0.40;99.90;;;;;;4992058;28;20045;-87
2021/01/26 09:45:54;;;;;;;0.20;0.20;;;0.50;99.90;;;;;;5008093;28;20042;-87
2021/01/26 09:48:30;;;;;;;0.10;0.10;;;0.60;99.90;;;;;;4991793;28;20092;-87
2021/01/26 09:51:13;;;;;;;0.22;0.22;;;0.80;99.90;;;;;;5007826;28;20121;-87
2021/01/26 09:53:40;;;;;;;0.10;0.10;;;0.80;99.90;;;;;;5007661;28;20026;-87
2021/01/26 09:56:07;;;;;;;0.57;0.57;;;0.90;99.90;;;;;;4991809;28;20022;-87
2021/01/26 09:58:33;;;;;;;0.30;0.30;;;1.10;99.90;;;;;;5008131;28;20030;-87
2021/01/26 10:01:00;;;;;;;0.63;0.63;;;1.80;99.90;;;;;;5008024;28;20026;-87
2021/01/26 10:03:27;;;;;;;0.10;0.10;;;3.30;99.90;;;;;;5008269;28;20670;-87
2021/01/26 10:05:56;;;;;;;0.10;0.10;;;2.60;99.90;;;;;;5055281;28;20068;-87
2021/01/26 10:08:21;;;;;;;0.10;0.10;;;3.10;99.90;;;;;;5070062;28;20379;-87
2021/01/26 10:10:48;;;;;;;0.30;0.30;;;3.10;99.90;;;;;;5051801;28;20026;-87
2021/01/26 10:13:28;;;;;;;0.20;0.20;;;3.20;99.90;;;;;;5070052;28;20543;-87
2021/01/26 10:15:55;;;;;;;0.10;0.10;;;2.80;99.90;;;;;;5069857;28;20500;-87
2021/01/26 10:18:27;;;;;;;0.47;0.47;;;2.80;99.90;;;;;;5052005;28;20758;-87
2021/01/26 10:21:03;;;;;;;0.17;0.17;;;2.40;99.90;;;;;;5064931;28;20041;-88
2021/01/26 10:23:56;;;;;;;0.30;0.30;;;2.60;99.90;;;;;;5061886;28;20039;-87
2021/01/26 10:26:25;;;;;;;0.10;0.10;;;2.30;99.90;;;;;;5035636;28;20128;-87
2021/01/26 10:29:00;;;;;;;0.20;0.20;;;2.20;99.90;;;;;;5069498;28;20744;-87
2021/01/26 10:31:26;;;;;;;0.20;0.20;;;2.10;99.90;;;;;;5069557;28;20036;-87
2021/01/26 10:33:52;;;;;;;0.10;0.10;;;2.00;99.90;;;;;;5069391;28;20155;-87
2021/01/26 10:36:28;;;;;;;2.30;0.60;;;1.90;99.90;;;;;;5068870;28;20044;-87
2021/01/26 10:38:56;;;;;;;0.13;0.13;;;1.90;99.90;;;;;;5051230;28;20067;-88
2021/01/26 10:41:32;;;;;;;0.10;0.10;;;1.70;99.90;;;;;;5051118;28;20032;-87
2021/01/26 10:44:06;;;;;;;1.48;1.30;;;1.40;99.90;;;;;;5069023;28;20128;-87
2021/01/26 10:46:35;;;;;;;0.20;0.20;;;1.30;99.90;;;;;;5069033;28;20028;-87
2021/01/26 10:49:23;;;;;;;4.78;1.67;;;1.20;99.90;;;;;;5068791;28;20021;-87
2021/01/26 10:51:48;;;;;;;1.15;1.08;;;1.40;99.90;;;;;;5050795;28;20036;-87
2021/01/26 10:54:14;;;;;;;0.30;0.30;;;1.70;99.90;;;;;;5068947;28;20024;-87
2021/01/26 10:56:43;;;;;;;0.60;0.60;;;2.20;99.90;;;;;;5050678;28;20505;-87
2021/01/26 10:59:08;;;;;;;0.10;0.10;;;2.70;99.90;;;;;;5061136;28;20033;-87
2021/01/26 11:01:42;;;;;;;0.20;0.20;;;2.90;99.90;;;;;;5062883;28;20043;-87
2021/01/26 11:04:08;;;;;;;0.10;0.10;;;3.10;99.90;;;;;;5055633;28;20028;-87
2021/01/26 11:06:33;;;;;;;0.10;0.10;;;3.40;99.90;;;;;;5051440;28;20501;-88
2021/01/26 11:08:59;;;;;;;0.13;0.13;;;3.30;99.90;;;;;;5050596;28;20036;-87
2021/01/26 11:11:28;;;;;;;0.30;0.30;;;3.40;99.90;;;;;;5058126;28;20021;-88
2021/01/26 11:13:55;;;;;;;0.10;0.10;;;3.90;99.90;;;;;;5066209;28;20024;-88
2021/01/26 11:16:22;;;;;;;0.10;0.10;;;4.40;99.90;;;;;;5050982;28;20117;-88
2021/01/26 11:18:47;;;;;;;0.10;0.10;;;4.50;99.90;;;;;;5068816;28;20318;-88
2021/01/26 11:21:14;;;;;;;0.55;0.55;;;5.10;99.90;;;;;;5050618;28;20037;-88
2021/01/26 11:23:41;;;;;;;0.15;0.15;;;4.90;99.90;;;;;;5051024;28;20138;-88
2021/01/26 11:26:11;;;;;;;0.20;0.20;;;5.20;99.90;;;;;;5069134;28;20581;-88
2021/01/26 11:28:36;;;;;;;0.10;0.10;;;5.30;99.90;;;;;;5069548;28;20072;-88
2021/01/26 11:31:02;;;;;;;0.00;0.00;;;5.30;99.90;;;;;;5050871;28;20490;-88
2021/01/26 11:33:28;;;;;;;0.20;0.20;;;4.90;99.90;;;;;;5059422;28;20037;-88
2021/01/26 11:35:55;;;;;;;0.10;0.10;;;4.40;99.90;;;;;;5052140;28;20060;-88
2021/01/26 11:38:22;;;;;;;0.17;0.17;;;4.90;99.90;;;;;;5051708;28;20013;-88
2021/01/26 11:40:48;;;;;;;0.10;0.10;;;5.10;99.90;;;;;;5070094;28;20122;-88
2021/01/26 11:43:14;;;;;;;0.10;0.10;;;4.40;99.90;;;;;;5069868;28;20402;-88
2021/01/26 11:45:40;;;;;;;0.10;0.10;;;4.30;99.90;;;;;;5069731;28;20032;-88
2021/01/26 11:48:07;;;;;;;0.77;0.30;;;4.10;99.90;;;;;;5068537;28;20444;-88
2021/01/26 11:50:35;;;;;;;0.10;0.10;;;4.60;99.90;;;;;;5069525;28;20060;-88
2021/01/26 11:53:01;;;;;;;2.10;0.75;;;5.10;99.90;;;;;;5051523;28;20567;-88
2021/01/26 11:55:30;;;;;;;0.10;0.10;;;5.00;99.90;;;;;;5037482;28;20111;-88
2021/01/26 11:57:56;;;;;;;0.43;0.43;;;4.30;99.90;;;;;;5051774;28;20531;-88
2021/01/26 12:00:26;;;;;;;0.10;0.10;;;4.00;99.90;;;;;;5052713;28;20059;-88
2021/01/26 12:02:52;;;;;;;0.15;0.15;;;4.00;99.90;;;;;;5060169;28;20020;-88
2021/01/26 12:05:22;;;;;;;0.22;0.22;;;4.20;99.90;;;;;;5048970;28;20028;-88
2021/01/26 12:07:48;;;;;;;0.10;0.10;;;4.00;99.90;;;;;;5052403;28;20063;-88
2021/01/26 12:10:15;;;;;;;0.82;0.82;;;4.10;99.90;;;;;;5052489;28;20082;-88
2021/01/26 12:12:41;;;;;;;;;;;4.10;99.90;;;;;;5053260;28;20029;-88
2021/01/26 12:15:10;;;;;;;0.10;0.10;;;4.50;99.90;;;;;;5070721;28;19908;-88
2021/01/26 12:17:35;;;;;;;0.10;0.10;;;4.60;99.90;;;;;;5052563;28;20017;-88
2021/01/26 12:20:03;;;;;;;0.10;0.10;;;4.30;99.90;;;;;;5040847;28;20548;-88
2021/01/26 12:22:28;;;;;;;2.20;0.57;;;4.50;99.90;;;;;;5050390;28;20069;-88
2021/01/26 12:24:54;;;;;;;0.25;0.25;;;4.50;99.90;;;;;;5070628;28;20036;-88
2021/01/26 12:27:20;;;;;;;0.10;0.10;;;4.60;99.90;;;;;;5052714;28;20067;-89
2021/01/26 12:29:46;;;;;;;0.15;0.15;;;4.40;99.90;;;;;;5052475;28;20035;-89
2021/01/26 12:32:12;;;;;;;0.10;0.10;;;4.40;99.90;;;;;;5052738;28;20191;-88
2021/01/26 12:34:38;;;;;;;0.10;0.10;;;4.60;99.90;;;;;;5052616;28;20672;-88
2021/01/26 12:37:03;;;;;;;0.10;0.10;;;4.80;99.90;;;;;;5052718;28;20078;-88
2021/01/26 12:39:29;;;;;;;0.10;0.10;;;4.70;99.90;;;;;;5052406;28;20070;-88
2021/01/26 12:41:55;;;;;;;0.20;0.20;;;4.70;99.90;;;;;;5052578;28;20108;-88
2021/01/26 12:44:21;;;;;;;0.10;0.10;;;4.70;99.90;;;;;;5070786;28;20039;-88
2021/01/26 12:46:47;;;;;;;0.10;0.10;;;4.50;99.90;;;;;;5048966;28;20032;-88
2021/01/26 12:49:14;;;;;;;0.03;0.03;;;4.50;99.90;;;;;;5042623;28;20402;-88
2021/01/26 12:51:40;;;;;;;0.10;0.10;;;4.40;99.90;;;;;;5038320;28;20267;-88
2021/01/26 12:54:05;;;;;;;2.28;0.60;;;4.50;99.90;;;;;;5070594;28;20044;-88
2021/01/26 12:56:31;;;;;;;0.10;0.10;;;5.00;99.90;;;;;;5052432;28;20398;-88
2021/01/26 12:58:57;;;;;;;0.17;0.17;;;5.30;99.90;;;;;;5054423;28;20032;-88
2021/01/26 13:01:26;;;;;;;0.20;0.20;;;5.50;99.90;;;;;;5043610;28;20032;-89
2021/01/26 13:03:52;;;;;;;0.10;0.10;;;5.90;99.90;;;;;;5053350;28;20009;-89
2021/01/26 13:06:17;;;;;;;0.20;0.20;;;6.50;99.90;;;;;;5073460;28;20031;-89
2021/01/26 13:08:43;;;;;;;0.35;0.35;;;6.40;99.90;;;;;;5041341;28;20049;-89
2021/01/26 13:11:09;;;;;;;0.68;0.68;;;6.30;99.90;;;;;;5055416;28;20119;-88
2021/01/26 13:13:35;;;;;;;0.10;0.10;;;6.10;99.90;;;;;;5054522;28;20067;-88
2021/01/26 13:16:01;;;;;;;0.10;0.10;;;6.20;99.90;;;;;;5066606;28;20086;-89
2021/01/26 13:18:26;;;;;;;0.10;0.10;;;6.20;99.90;;;;;;5065517;28;20028;-89
2021/01/26 13:20:52;;;;;;;0.20;0.20;;;6.10;99.90;;;;;;5072652;28;20449;-89
2021/01/26 13:23:19;;;;;;;0.10;0.10;;;6.30;99.90;;;;;;5054904;28;20569;-89
2021/01/26 13:25:45;;;;;;;0.10;0.10;;;6.40;99.90;;;;;;5054708;28;20506;-88
2021/01/26 13:28:11;;;;;;;0.32;0.32;;;6.40;99.90;;;;;;5072728;28;20039;-89
2021/01/26 13:30:37;;;;;;;0.10;0.10;;;6.70;99.90;;;;;;5053947;28;20029;-89